createdAt,value
2023-01-25T00:00:51.848Z,1.28
2023-01-25T00:03:18.860Z,1.22
2023-01-25T00:05:45.995Z,1.21
2023-01-25T00:08:12.880Z,1.23
2023-01-25T00:10:39.826Z,1.24
2023-01-25T00:13:06.866Z,1.24
2023-01-25T00:15:33.916Z,1.25
2023-01-25T00:18:00.750Z,1.21
2023-01-25T00:20:27.808Z,1.19
2023-01-25T00:22:54.771Z,1.13
2023-01-25T00:25:21.824Z,1.01
2023-01-25T00:27:49.007Z,0.97
2023-01-25T00:30:17.217Z,0.99
2023-01-25T00:32:58.315Z,1.04
2023-01-25T00:35:31.733Z,0.92
2023-01-25T00:38:02.870Z,0.90
2023-01-25T00:40:29.927Z,0.90
2023-01-25T00:43:00.903Z,0.93
2023-01-25T00:45:27.976Z,0.96
2023-01-25T00:47:56.480Z,1.02
2023-01-25T00:50:23.808Z,1.08
2023-01-25T00:52:51.749Z,1.08
2023-01-25T00:55:18.674Z,1.01
2023-01-25T00:57:48.418Z,0.93
2023-01-25T01:00:15.950Z,0.87
2023-01-25T01:02:42.864Z,0.83
2023-01-25T01:05:10.678Z,0.72
2023-01-25T01:07:37.921Z,0.75
2023-01-25T01:10:05.380Z,0.81
2023-01-25T01:12:32.261Z,0.81
2023-01-25T01:14:59.316Z,0.82
2023-01-25T01:17:26.652Z,0.77
2023-01-25T01:19:53.592Z,0.76
2023-01-25T01:22:21.394Z,0.77
2023-01-25T01:24:50.288Z,0.73
2023-01-25T01:27:18.747Z,0.61
2023-01-25T01:29:46.024Z,0.60
2023-01-25T01:32:13.206Z,0.66
2023-01-25T01:34:40.739Z,0.67
2023-01-25T01:37:07.856Z,0.68
2023-01-25T01:39:34.762Z,0.73
2023-01-25T01:42:01.862Z,0.75
2023-01-25T01:44:47.693Z,0.76
2023-01-25T01:47:29.154Z,0.76
2023-01-25T01:50:06.600Z,0.75
2023-01-25T01:52:37.986Z,0.73
2023-01-25T01:55:08.459Z,0.68
2023-01-25T01:57:41.026Z,0.63
2023-01-25T02:00:14.493Z,0.61
2023-01-25T02:02:42.791Z,0.52
2023-01-25T02:05:21.879Z,0.48
2023-01-25T02:07:53.873Z,0.46
2023-01-25T02:10:23.130Z,0.53
2023-01-25T02:12:54.795Z,0.48
2023-01-25T02:15:21.709Z,0.43
2023-01-25T02:17:50.255Z,0.39
2023-01-25T02:20:26.090Z,0.35
2023-01-25T02:23:33.640Z,0.27
2023-01-25T02:26:07.177Z,0.38
2023-01-25T02:28:46.602Z,0.47
2023-01-25T02:31:14.613Z,0.39
2023-01-25T02:33:41.537Z,0.34
2023-01-25T02:36:10.497Z,0.31
2023-01-25T02:38:42.142Z,0.34
2023-01-25T02:41:25.189Z,0.29
2023-01-25T02:43:52.431Z,0.29
2023-01-25T02:46:27.685Z,0.33
2023-01-25T02:48:55.708Z,0.39
2023-01-25T02:51:24.011Z,0.43
2023-01-25T02:53:52.007Z,0.39
2023-01-25T02:56:20.101Z,0.32
2023-01-25T02:58:48.392Z,0.33
2023-01-25T03:01:17.915Z,0.29
2023-01-25T03:03:45.548Z,0.27
2023-01-25T03:06:13.467Z,0.32
2023-01-25T03:08:43.525Z,0.40
2023-01-25T03:11:10.896Z,0.44
2023-01-25T03:13:41.087Z,0.42
2023-01-25T03:16:10.778Z,0.37
2023-01-25T03:18:41.268Z,0.34
2023-01-25T03:21:19.877Z,0.29
2023-01-25T03:23:48.736Z,0.25
2023-01-25T03:26:23.761Z,0.33
2023-01-25T03:29:10.899Z,0.36
2023-01-25T03:31:40.860Z,0.44
2023-01-25T03:34:07.910Z,0.42
2023-01-25T03:36:38.901Z,0.44
2023-01-25T03:39:06.044Z,0.41
2023-01-25T03:41:39.493Z,0.31
2023-01-25T03:44:11.668Z,0.34
2023-01-25T03:46:41.152Z,0.35
2023-01-25T03:49:09.152Z,0.36
2023-01-25T03:51:36.490Z,0.38
2023-01-25T03:54:04.542Z,0.45
2023-01-25T03:56:34.398Z,0.52
2023-01-25T03:59:07.776Z,0.49
2023-01-25T04:01:35.808Z,0.40
2023-01-25T04:04:03.226Z,0.35
2023-01-25T04:06:30.581Z,0.33
2023-01-25T04:08:57.875Z,0.39
2023-01-25T04:11:26.603Z,0.40
2023-01-25T04:13:54.251Z,0.36
2023-01-25T04:16:23.465Z,0.26
2023-01-25T04:19:08.891Z,0.17
2023-01-25T04:21:36.112Z,0.13
2023-01-25T04:24:03.151Z,0.16
2023-01-25T04:26:33.453Z,0.13
2023-01-25T04:29:02.287Z,0.14
2023-01-25T04:31:29.515Z,0.14
2023-01-25T04:33:58.417Z,0.14
2023-01-25T04:36:25.516Z,0.19
2023-01-25T04:38:52.416Z,0.19
2023-01-25T04:41:20.333Z,0.17
2023-01-25T04:43:47.392Z,0.15
2023-01-25T04:46:15.861Z,0.17
2023-01-25T04:48:42.985Z,0.19
2023-01-25T04:51:10.075Z,0.22
2023-01-25T04:53:37.225Z,0.23
2023-01-25T04:56:06.833Z,0.20
2023-01-25T04:58:42.041Z,0.20
2023-01-25T05:01:09.278Z,0.25
2023-01-25T05:03:36.211Z,0.23
2023-01-25T05:06:05.645Z,0.14
2023-01-25T05:08:33.999Z,0.13
2023-01-25T05:11:02.824Z,0.17
2023-01-25T05:13:39.806Z,0.14
2023-01-25T05:16:18.380Z,0.00
2023-01-25T05:18:49.218Z,0.00
2023-01-25T05:21:41.404Z,0.06
2023-01-25T05:24:09.918Z,0.04
2023-01-25T05:26:56.882Z,0.04
2023-01-25T05:29:23.899Z,0.05
2023-01-25T05:32:12.377Z,0.04
2023-01-25T05:34:39.766Z,-0.01
2023-01-25T05:37:08.594Z,0.00
2023-01-25T05:39:39.548Z,-0.04
2023-01-25T05:42:17.808Z,0.04
2023-01-25T05:44:47.342Z,0.00
2023-01-25T05:47:17.873Z,-0.06
2023-01-25T05:49:45.184Z,-0.06
2023-01-25T05:52:19.578Z,-0.07
2023-01-25T05:54:47.273Z,-0.10
2023-01-25T05:57:16.240Z,-0.08
2023-01-25T05:59:44.104Z,-0.03
2023-01-25T06:02:14.104Z,-0.03
2023-01-25T06:04:42.849Z,0.02
2023-01-25T06:07:11.914Z,0.08
2023-01-25T06:09:39.089Z,0.14
2023-01-25T06:12:06.860Z,0.10
2023-01-25T06:14:34.177Z,-0.02
2023-01-25T06:17:03.163Z,-0.07
2023-01-25T06:19:59.964Z,-0.12
2023-01-25T06:22:34.676Z,-0.16
2023-01-25T06:25:01.802Z,-0.15
2023-01-25T06:27:28.739Z,-0.08
2023-01-25T06:29:55.686Z,-0.07
2023-01-25T06:32:24.235Z,-0.06
2023-01-25T06:34:51.459Z,-0.03
2023-01-25T06:37:24.522Z,-0.07
2023-01-25T06:39:51.705Z,-0.06
2023-01-25T06:42:18.685Z,0.02
2023-01-25T06:44:46.039Z,-0.03
2023-01-25T06:47:12.960Z,-0.10
2023-01-25T06:49:39.826Z,-0.08
2023-01-25T06:52:07.807Z,-0.04
2023-01-25T06:54:34.816Z,0.05
2023-01-25T06:57:01.763Z,0.15
2023-01-25T06:59:28.887Z,0.17
2023-01-25T07:01:55.853Z,0.25
2023-01-25T07:04:23.111Z,0.32
2023-01-25T07:06:51.103Z,0.34
2023-01-25T07:09:23.725Z,0.32
2023-01-25T07:11:52.922Z,0.32
2023-01-25T07:14:20.180Z,0.36
2023-01-25T07:16:47.057Z,0.40
2023-01-25T07:19:14.337Z,0.44
2023-01-25T07:21:41.195Z,0.42
2023-01-25T07:24:08.105Z,0.37
2023-01-25T07:26:35.470Z,0.30
2023-01-25T07:29:02.656Z,0.25
2023-01-25T07:31:29.570Z,0.23
2023-01-25T07:33:58.407Z,0.21
2023-01-25T07:36:26.211Z,0.22
2023-01-25T07:38:54.953Z,0.20
2023-01-25T07:41:23.316Z,0.20
2023-01-25T07:43:52.221Z,0.18
2023-01-25T07:46:33.493Z,0.18
2023-01-25T07:49:00.429Z,0.19
2023-01-25T07:51:27.949Z,0.21
2023-01-25T07:54:00.535Z,0.23
2023-01-25T07:56:38.491Z,0.25
2023-01-25T07:59:08.603Z,0.26
2023-01-25T08:01:37.075Z,0.33
2023-01-25T08:04:05.090Z,0.31
2023-01-25T08:06:36.349Z,0.35
2023-01-25T08:09:07.519Z,0.32
2023-01-25T08:11:35.509Z,0.28
2023-01-25T08:14:03.641Z,0.28
2023-01-25T08:16:32.172Z,0.28
2023-01-25T08:19:00.994Z,0.27
2023-01-25T08:21:32.624Z,0.28
2023-01-25T08:24:01.553Z,0.35
2023-01-25T08:26:29.103Z,0.42
2023-01-25T08:28:56.758Z,0.49
2023-01-25T08:31:32.113Z,0.52
2023-01-25T08:34:00.671Z,0.53
2023-01-25T08:36:28.302Z,0.50
2023-01-25T08:39:06.863Z,0.54
2023-01-25T08:41:35.326Z,0.54
2023-01-25T08:44:02.798Z,0.51
2023-01-25T08:46:32.187Z,0.47
2023-01-25T08:49:01.164Z,0.49
2023-01-25T08:51:28.831Z,0.48
2023-01-25T08:53:56.334Z,0.49
2023-01-25T08:56:23.670Z,0.51
2023-01-25T08:58:51.594Z,0.49
2023-01-25T09:01:20.234Z,0.50
2023-01-25T09:03:50.468Z,0.58
2023-01-25T09:06:20.257Z,0.62
2023-01-25T09:08:48.453Z,0.58
2023-01-25T09:11:21.560Z,0.57
2023-01-25T09:13:50.794Z,0.62
2023-01-25T09:16:28.466Z,0.67
2023-01-25T09:19:01.681Z,0.64
2023-01-25T09:21:29.749Z,0.67
2023-01-25T09:24:06.614Z,0.76
2023-01-25T09:26:37.517Z,0.79
2023-01-25T09:29:05.414Z,0.69
2023-01-25T09:31:32.563Z,0.69
2023-01-25T09:34:15.010Z,0.74
2023-01-25T09:36:42.374Z,0.75
2023-01-25T09:39:12.422Z,0.78
2023-01-25T09:42:15.653Z,0.75
2023-01-25T09:45:02.752Z,0.81
2023-01-25T09:47:38.132Z,0.84
2023-01-25T09:50:36.070Z,0.86
2023-01-25T09:53:14.983Z,0.84
2023-01-25T09:55:42.541Z,0.88
2023-01-25T09:58:20.209Z,0.93
2023-01-25T10:00:52.704Z,1.00
2023-01-25T10:03:23.007Z,1.03
2023-01-25T10:05:53.551Z,1.04
2023-01-25T10:08:43.099Z,1.06
2023-01-25T10:11:28.657Z,1.02
2023-01-25T10:13:58.089Z,1.03
2023-01-25T10:16:32.072Z,1.03
2023-01-25T10:19:13.351Z,1.05
2023-01-25T10:21:45.497Z,1.03
2023-01-25T10:24:39.843Z,1.05
2023-01-25T10:27:32.654Z,1.09
2023-01-25T10:30:02.717Z,1.12
2023-01-25T10:32:32.546Z,1.09
2023-01-25T10:35:19.831Z,1.08
2023-01-25T10:37:53.776Z,1.17
2023-01-25T10:40:26.757Z,1.16
2023-01-25T10:42:55.326Z,1.17
2023-01-25T10:45:22.227Z,1.21
2023-01-25T10:47:58.336Z,1.21
2023-01-25T10:50:37.108Z,1.31
2023-01-25T10:53:04.679Z,1.32
2023-01-25T10:55:31.543Z,1.24
2023-01-25T10:57:58.439Z,1.24
2023-01-25T11:00:30.967Z,1.28
2023-01-25T11:02:58.410Z,1.31
2023-01-25T11:05:27.190Z,1.37
2023-01-25T11:07:54.548Z,1.40
2023-01-25T11:10:29.276Z,1.45
2023-01-25T11:13:15.681Z,1.54
2023-01-25T11:15:44.970Z,1.52
2023-01-25T11:18:25.944Z,1.48
2023-01-25T11:21:08.032Z,1.45
2023-01-25T11:23:35.121Z,1.49
2023-01-25T11:26:20.196Z,1.51
2023-01-25T11:28:50.106Z,1.49
2023-01-25T11:31:22.394Z,1.48
2023-01-25T11:33:50.364Z,1.45
2023-01-25T11:36:52.736Z,1.43
2023-01-25T11:39:35.041Z,1.54
2023-01-25T11:42:26.807Z,1.56
2023-01-25T11:45:30.167Z,1.65
2023-01-25T11:48:31.656Z,1.67
2023-01-25T11:51:14.348Z,1.67
2023-01-25T11:53:56.361Z,1.70
2023-01-25T11:56:35.641Z,1.72
2023-01-25T11:59:21.719Z,1.67
2023-01-25T12:02:02.799Z,1.66
2023-01-25T12:05:16.290Z,1.69
2023-01-25T12:08:38.767Z,1.77
2023-01-25T12:11:32.135Z,1.74
2023-01-25T12:14:31.049Z,1.77
2023-01-25T12:17:11.708Z,1.79
2023-01-25T12:19:59.000Z,1.82
2023-01-25T12:22:43.827Z,1.89
2023-01-25T12:25:16.883Z,1.91
2023-01-25T12:27:58.807Z,1.92
2023-01-25T12:30:34.257Z,2.00
2023-01-25T12:33:29.097Z,2.03
2023-01-25T12:36:00.053Z,2.00
2023-01-25T12:38:35.307Z,2.03
2023-01-25T12:41:48.441Z,2.00
2023-01-25T12:44:27.782Z,1.99
2023-01-25T12:47:02.586Z,1.98
2023-01-25T12:49:42.764Z,2.04
2023-01-25T12:52:32.138Z,1.95
2023-01-25T12:55:07.096Z,1.99
2023-01-25T12:57:41.926Z,2.03
2023-01-25T13:00:33.632Z,2.14
2023-01-25T13:03:06.507Z,2.15
2023-01-25T13:05:58.048Z,2.17
2023-01-25T13:08:48.711Z,2.14
2023-01-25T13:11:40.288Z,2.16
2023-01-25T13:14:16.815Z,2.19
2023-01-25T13:17:01.553Z,2.20
2023-01-25T13:19:36.229Z,2.14
2023-01-25T13:22:04.078Z,2.13
2023-01-25T13:24:32.853Z,2.14
2023-01-25T13:27:05.531Z,2.12
2023-01-25T13:29:32.367Z,2.10
2023-01-25T13:32:00.868Z,2.09
2023-01-25T13:34:38.499Z,2.14
2023-01-25T13:37:19.915Z,2.11
2023-01-25T13:39:54.817Z,2.14
2023-01-25T13:42:30.558Z,2.12
2023-01-25T13:45:04.584Z,2.10
2023-01-25T13:47:40.111Z,2.15
2023-01-25T13:50:33.370Z,2.19
2023-01-25T13:53:17.999Z,2.17
2023-01-25T13:55:51.671Z,2.27
2023-01-25T13:58:22.897Z,2.34
2023-01-25T14:00:54.581Z,2.35
2023-01-25T14:03:36.126Z,2.34
2023-01-25T14:06:04.823Z,2.44
2023-01-25T14:08:32.507Z,2.49
2023-01-25T14:10:59.863Z,2.51
2023-01-25T14:13:27.066Z,2.50
2023-01-25T14:16:09.317Z,2.47
2023-01-25T14:18:40.001Z,2.47
2023-01-25T14:21:17.454Z,2.55
2023-01-25T14:23:45.449Z,2.52
2023-01-25T14:26:23.164Z,2.50
2023-01-25T14:29:01.391Z,2.50
2023-01-25T14:31:35.119Z,2.45
2023-01-25T14:34:05.236Z,2.47
2023-01-25T14:36:37.228Z,2.45
2023-01-25T14:39:17.406Z,2.40
2023-01-25T14:41:59.855Z,2.35
2023-01-25T14:44:29.409Z,2.34
2023-01-25T14:47:31.046Z,2.25
2023-01-25T14:50:29.068Z,2.17
2023-01-25T14:52:57.775Z,2.12
2023-01-25T14:55:25.994Z,2.10
2023-01-25T14:57:58.446Z,2.09
2023-01-25T15:00:31.832Z,2.09
2023-01-25T15:03:05.991Z,2.11
2023-01-25T15:05:36.811Z,2.10
2023-01-25T15:08:06.709Z,2.12
2023-01-25T15:10:35.981Z,2.14
2023-01-25T15:13:14.434Z,2.10
2023-01-25T15:16:02.942Z,2.08
2023-01-25T15:18:53.433Z,2.13
2023-01-25T15:21:25.549Z,2.10
2023-01-25T15:23:54.197Z,2.07
2023-01-25T15:26:32.143Z,2.05
2023-01-25T15:29:02.010Z,2.01
2023-01-25T15:31:37.484Z,1.94
2023-01-25T15:34:05.557Z,1.96
2023-01-25T15:36:33.645Z,1.91
2023-01-25T15:39:00.568Z,1.84
2023-01-25T15:41:27.750Z,1.80
2023-01-25T15:43:54.752Z,1.78
2023-01-25T15:46:28.205Z,1.71
2023-01-25T15:48:55.540Z,1.65
2023-01-25T15:51:23.411Z,1.67
2023-01-25T15:53:51.914Z,1.63
2023-01-25T15:56:20.162Z,1.62
2023-01-25T15:58:54.008Z,1.58
2023-01-25T16:01:23.188Z,1.53
2023-01-25T16:03:50.333Z,1.53
2023-01-25T16:06:38.027Z,1.53
2023-01-25T16:09:23.493Z,1.50
2023-01-25T16:11:53.089Z,1.49
2023-01-25T16:14:21.532Z,1.44
2023-01-25T16:16:51.584Z,1.35
2023-01-25T16:19:22.218Z,1.34
2023-01-25T16:21:51.404Z,1.29
2023-01-25T16:24:18.754Z,1.20
2023-01-25T16:26:48.132Z,1.18
2023-01-25T16:29:15.147Z,1.19
2023-01-25T16:31:42.131Z,1.17
2023-01-25T16:34:09.421Z,1.12
2023-01-25T16:36:37.470Z,1.09
2023-01-25T16:39:16.235Z,1.14
2023-01-25T16:41:43.373Z,1.07
2023-01-25T16:44:10.264Z,1.08
2023-01-25T16:46:37.411Z,1.05
2023-01-25T16:49:06.894Z,1.04
2023-01-25T16:51:34.185Z,1.02
2023-01-25T16:54:01.584Z,1.05
2023-01-25T16:56:31.068Z,1.08
2023-01-25T16:59:02.352Z,1.11
2023-01-25T17:01:29.454Z,1.11
2023-01-25T17:03:57.301Z,1.01
2023-01-25T17:06:26.158Z,0.97
2023-01-25T17:08:56.354Z,0.91
2023-01-25T17:11:23.830Z,0.87
2023-01-25T17:13:52.867Z,0.85
2023-01-25T17:16:21.445Z,0.77
2023-01-25T17:18:53.554Z,0.78
2023-01-25T17:21:21.369Z,0.74
2023-01-25T17:23:50.221Z,0.68
2023-01-25T17:26:20.149Z,0.69
2023-01-25T17:28:47.835Z,0.72
2023-01-25T17:31:18.406Z,0.76
2023-01-25T17:33:46.360Z,0.76
2023-01-25T17:36:15.276Z,0.76
2023-01-25T17:38:42.798Z,0.75
2023-01-25T17:41:13.062Z,0.74
2023-01-25T17:43:40.325Z,0.72
2023-01-25T17:46:12.161Z,0.69
2023-01-25T17:48:40.222Z,0.67
2023-01-25T17:51:07.346Z,0.71
2023-01-25T17:53:34.544Z,0.70
2023-01-25T17:56:03.820Z,0.67
2023-01-25T17:58:31.867Z,0.64
2023-01-25T18:01:12.611Z,0.67
2023-01-25T18:03:41.447Z,0.63
2023-01-25T18:06:09.600Z,0.63
2023-01-25T18:08:41.632Z,0.66
2023-01-25T18:11:10.570Z,0.60
2023-01-25T18:13:46.129Z,0.59
2023-01-25T18:16:14.447Z,0.58
2023-01-25T18:18:43.492Z,0.60
2023-01-25T18:21:16.441Z,0.58
2023-01-25T18:23:47.302Z,0.60
2023-01-25T18:26:37.271Z,0.59
2023-01-25T18:29:10.071Z,0.58
2023-01-25T18:31:37.297Z,0.57
2023-01-25T18:34:05.126Z,0.57
2023-01-25T18:36:32.202Z,0.51
2023-01-25T18:39:00.374Z,0.50
2023-01-25T18:41:27.439Z,0.42
2023-01-25T18:43:56.061Z,0.43
2023-01-25T18:46:23.023Z,0.34
2023-01-25T18:48:51.423Z,0.34
2023-01-25T18:51:18.818Z,0.31
2023-01-25T18:53:47.772Z,0.33
2023-01-25T18:56:18.391Z,0.35
2023-01-25T18:58:45.799Z,0.35
2023-01-25T19:01:15.863Z,0.38
2023-01-25T19:03:44.127Z,0.36
2023-01-25T19:06:11.865Z,0.42
2023-01-25T19:08:44.400Z,0.40
2023-01-25T19:11:13.923Z,0.43
2023-01-25T19:13:42.377Z,0.41
2023-01-25T19:16:20.169Z,0.41
2023-01-25T19:18:51.093Z,0.39
2023-01-25T19:21:21.517Z,0.40
2023-01-25T19:23:48.670Z,0.45
2023-01-25T19:26:18.161Z,0.45
2023-01-25T19:28:46.803Z,0.44
2023-01-25T19:31:20.341Z,0.43
2023-01-25T19:33:48.685Z,0.44
2023-01-25T19:36:19.980Z,0.48
2023-01-25T19:38:48.770Z,0.43
2023-01-25T19:41:18.545Z,0.43
2023-01-25T19:43:45.916Z,0.44
2023-01-25T19:46:24.292Z,0.43
2023-01-25T19:48:53.079Z,0.44
2023-01-25T19:51:25.536Z,0.47
2023-01-25T19:54:03.184Z,0.47
2023-01-25T19:56:35.934Z,0.50
2023-01-25T19:59:04.732Z,0.43
2023-01-25T20:01:32.129Z,0.43
2023-01-25T20:03:59.592Z,0.47
2023-01-25T20:06:27.098Z,0.46
2023-01-25T20:08:54.325Z,0.53
2023-01-25T20:11:27.360Z,0.53
2023-01-25T20:13:56.564Z,0.54
2023-01-25T20:16:24.386Z,0.49
2023-01-25T20:18:51.949Z,0.46
2023-01-25T20:21:23.498Z,0.43
2023-01-25T20:23:53.873Z,0.46
2023-01-25T20:26:23.935Z,0.46
2023-01-25T20:28:53.289Z,0.45
2023-01-25T20:31:27.935Z,0.51
2023-01-25T20:34:01.058Z,0.53
2023-01-25T20:36:28.866Z,0.56
2023-01-25T20:38:55.852Z,0.55
2023-01-25T20:41:23.757Z,0.56
2023-01-25T20:43:52.566Z,0.57
2023-01-25T20:46:22.003Z,0.57
2023-01-25T20:48:50.104Z,0.60
2023-01-25T20:51:17.274Z,0.62
2023-01-25T20:53:46.086Z,0.65
2023-01-25T20:56:15.065Z,0.64
2023-01-25T20:58:42.881Z,0.68
2023-01-25T21:01:31.014Z,0.67
2023-01-25T21:03:58.647Z,0.69
2023-01-25T21:06:26.976Z,0.71
2023-01-25T21:08:54.814Z,0.73
2023-01-25T21:11:23.312Z,0.71
2023-01-25T21:13:50.357Z,0.71
2023-01-25T21:16:21.850Z,0.70
2023-01-25T21:18:54.749Z,0.71
2023-01-25T21:21:28.127Z,0.73
2023-01-25T21:23:58.347Z,0.72
2023-01-25T21:26:31.122Z,0.77
2023-01-25T21:28:59.933Z,0.80
2023-01-25T21:31:35.438Z,0.80
2023-01-25T21:34:03.758Z,0.82
2023-01-25T21:36:30.830Z,0.85
2023-01-25T21:38:58.722Z,0.83
2023-01-25T21:41:29.640Z,0.85
2023-01-25T21:44:17.866Z,0.90
2023-01-25T21:47:04.161Z,0.90
2023-01-25T21:49:59.086Z,0.91
2023-01-25T21:52:26.083Z,0.91
2023-01-25T21:54:53.099Z,0.89
2023-01-25T21:57:21.207Z,0.92
2023-01-25T21:59:49.004Z,0.93
2023-01-25T22:02:16.839Z,0.97
2023-01-25T22:04:43.843Z,0.93
2023-01-25T22:07:11.719Z,0.92
2023-01-25T22:09:38.759Z,0.97
2023-01-25T22:12:05.828Z,0.99
2023-01-25T22:14:32.977Z,0.98
2023-01-25T22:16:59.867Z,1.00
2023-01-25T22:19:27.565Z,1.00
2023-01-25T22:21:54.563Z,0.99
2023-01-25T22:24:22.187Z,1.03
2023-01-25T22:26:50.114Z,0.96
2023-01-25T22:29:17.241Z,0.98
2023-01-25T22:31:44.381Z,0.93
2023-01-25T22:34:11.648Z,0.90
2023-01-25T22:36:39.080Z,0.88
2023-01-25T22:39:06.469Z,0.88
2023-01-25T22:41:37.261Z,0.85
2023-01-25T22:44:04.608Z,0.81
2023-01-25T22:46:31.657Z,0.86
2023-01-25T22:48:59.661Z,0.85
2023-01-25T22:51:29.173Z,0.85
2023-01-25T22:53:57.992Z,0.85
2023-01-25T22:56:28.091Z,0.82
2023-01-25T22:58:55.560Z,0.83
2023-01-25T23:01:25.606Z,0.80
2023-01-25T23:03:53.007Z,0.81
2023-01-25T23:06:23.739Z,0.82
2023-01-25T23:08:53.856Z,0.83
2023-01-25T23:11:23.374Z,0.81
2023-01-25T23:14:11.020Z,0.79
2023-01-25T23:16:38.089Z,0.79
2023-01-25T23:19:05.923Z,0.82
2023-01-25T23:21:33.623Z,0.82
2023-01-25T23:24:01.783Z,0.83
2023-01-25T23:26:34.119Z,0.81
2023-01-25T23:29:00.975Z,0.80
2023-01-25T23:31:28.143Z,0.82
2023-01-25T23:34:00.447Z,0.81
2023-01-25T23:36:29.959Z,0.83
2023-01-25T23:38:58.220Z,0.78
2023-01-25T23:41:27.151Z,0.79
2023-01-25T23:43:55.239Z,0.79
2023-01-25T23:46:23.574Z,0.77
2023-01-25T23:48:51.514Z,0.79
2023-01-25T23:51:19.881Z,0.79
2023-01-25T23:53:47.756Z,0.79
2023-01-25T23:56:20.413Z,0.82
2023-01-25T23:58:49.090Z,0.82
